Airport View

Enter AWOS ICAO identifier for current METAR.

ex. KFNL

KMYV 192053Z AUTO 23008KT 10SM CLR 29/15 A2991 RMK AO2 SLP132 T02940150 58012

19 Aug 2019 21:15

Frequency: 118.475

Phone: 530-742-0695

Other Area AWOS: KBAB - KLHM - KSMF - KOVE

TAF KBAB 191115Z 1911/2017 18009KT 9999 SKC QNH2984INS TX32/1923Z TN12/1913Z